Portada
METAR-TAF:

METAR-TAF

Aeroports :

Greensboro, Carolina del Nord, Estats Units d'Amèrica

latitud: 36-05-51N, longitud: 079-56-37W, altitud: 282 m

Observació

L'informe es va fer fa 41 minuts, a les 22:54 UTC
Vent 5 kt del Est/Nord-Est
Temperatura 1°C
Humitat 40%
Pressió 1027 hPa
Visibilitat: 16.1 km
Escasses núvols a una alçada de 25000 ft

METAR: KGSO 132254Z 07005KT 10SM FEW250 01/M11 A3033 RMK AO2 SLP280 T00061111

Hora: 18:35 (23:35 UTC)

Pronòstic

L'informe es va fer fa 5 hores i 56 minuts, a les 17:39 UTC
Pronòstic vàlid del 13 a les 18 UTC al 14 a les 18 UTC
Vent 5 kt del Est/Nord-Est
Visibilitat: 10 km
Escasses núvols a una alçada de 25000 ft
A partir de les 14 a les 1500 UTC
Vent 4 kt del Nord/Nord-Est
Visibilitat: 10 km
Escasses núvols a una alçada de 1500 ft
Cel ennuvolat a una alçada de 3500 ft
Cel cobert a una alçada de 20000 ft

TAF: KGSO 131739Z 1318/1418 06005KT P6SM FEW250 FM141500 03004KT P6SM FEW015 BKN035 OVC200

Observacions i pronòstics meteorològics de més de 4000 aeroports (METAR i TAF).

Les estacions disponibles són els punts grocs i vermells al mapa.

Posi el ratolí al punt desitjat per veure el nom de l'estació.

Feu clic per veure les observacions i els pronòstics meteorològics.

Per canviar el mapa: feu clic els botons verds amb una creu de color negre per apropar; al botó verd amb un guió per allunyar la imatge; o en les fletxes verdes per a mapes adjacents.


METAR-TAF: